Linda Kosan — OXSX2 — position and weather

sailwx.info

Track history (hours):
 
Tides and Currents Weather Stations Pressure Air Temp Water Temp Dewpoint Dewpoint Depression Visibility Wind Speed Wind Dir Waves Ship Positions

Linda Kosan

Last reported at 2018-Feb-25 21:31 UTC. Time now 2018-Feb-25 21:56 UTC.
Position N 48°51' W 005°29'.

Length 100 m; draft 5.5 m.

Type: Tanker. MMSI: 219048000.

Date/timePositionNaut miles runAvg speedWind from/ knotsBaromVisibWave heightAir tempDewpointWater temp
2018-Feb-25 21:31N 48°51' W 005°29'4 8.4
2018-Feb-25 20:59N 48°49' W 005°35'10 8.7
2018-Feb-25 19:51N 48°41' W 005°43'4 9.0
2018-Feb-25 19:27N 48°37' W 005°45'32 9.9
2018-Feb-25 16:15N 48°06' W 005°41'2 7.1
2018-Feb-25 15:54N 48°04' W 005°39'4 8.7
2018-Feb-25 15:29N 48°00' W 005°38'811.4
2018-Feb-25 14:46N 47°53' W 005°33'27212.6
2018-Feb-24 17:08N 43°39' W 003°13'213.2
2018-Feb-24 17:00N 43°37' W 003°13'612.9
2018-Feb-24 16:30N 43°31' W 003°09'612.9
2018-Feb-24 16:00N 43°25' W 003°06'3 0.7
2018-Feb-24 11:40N 43°22' W 003°06'0 0.0
2018-Feb-24 11:28N 43°22' W 003°06'0 0.0
2018-Feb-24 10:58N 43°22' W 003°06'0 0.0
2018-Feb-24 10:28N 43°22' W 003°06'0 0.0
2018-Feb-24 09:58N 43°22' W 003°06'0 0.0
2018-Feb-24 09:25N 43°22' W 003°06'0 0.0
2018-Feb-24 08:58N 43°22' W 003°06'0 0.0
2018-Feb-24 08:28N 43°22' W 003°06'0 0.0
2018-Feb-24 07:58N 43°22' W 003°06'0 0.0
2018-Feb-24 07:28N 43°22' W 003°06'0 0.0
2018-Feb-24 06:58N 43°22' W 003°06'0 0.0
2018-Feb-24 06:28N 43°22' W 003°06'0 0.0
2018-Feb-24 05:58N 43°22' W 003°06'0 0.0
2018-Feb-24 05:28N 43°22' W 003°06'0 0.0
2018-Feb-24 04:58N 43°22' W 003°06'0 0.0
2018-Feb-24 04:28N 43°22' W 003°06'0 0.0
2018-Feb-24 03:58N 43°22' W 003°06'0 0.0
2018-Feb-24 03:25N 43°22' W 003°06'0 0.0
2018-Feb-24 02:55N 43°22' W 003°06'0 0.0
2018-Feb-24 02:25N 43°22' W 003°06'0 0.0
2018-Feb-24 01:55N 43°22' W 003°06'0 0.0
2018-Feb-24 01:28N 43°22' W 003°06'0 0.0
2018-Feb-24 00:58N 43°22' W 003°06'0 0.0
2018-Feb-24 00:28N 43°22' W 003°06'0 0.0
2018-Feb-23 23:58N 43°22' W 003°06'0 0.0
2018-Feb-23 23:28N 43°22' W 003°06'0 0.0
2018-Feb-23 22:58N 43°22' W 003°06'0 0.0
2018-Feb-23 22:28N 43°22' W 003°06'0 0.0
2018-Feb-23 21:58N 43°22' W 003°06'0 0.0
2018-Feb-23 21:28N 43°22' W 003°06'0 0.0
2018-Feb-23 20:58N 43°22' W 003°06'0 0.0
2018-Feb-23 20:28N 43°22' W 003°06'0 0.0
2018-Feb-23 19:58N 43°22' W 003°06'0 0.1
2018-Feb-23 19:28N 43°22' W 003°06'0 0.1
2018-Feb-23 18:58N 43°22' W 003°06'0 0.0
2018-Feb-23 18:28N 43°22' W 003°06'0 0.0
2018-Feb-23 17:58N 43°22' W 003°06'0 0.0
2018-Feb-23 17:28N 43°22' W 003°06'0 0.0
2018-Feb-23 16:58N 43°22' W 003°06'0 0.0
2018-Feb-23 16:28N 43°22' W 003°06'0 0.0
2018-Feb-23 15:58N 43°22' W 003°06'0 0.0
2018-Feb-23 15:28N 43°22' W 003°06'0 0.0
2018-Feb-23 14:58N 43°22' W 003°06'0 0.0
2018-Feb-23 14:28N 43°22' W 003°06'0 0.0
2018-Feb-23 13:58N 43°22' W 003°06'0 0.0
2018-Feb-23 13:28N 43°22' W 003°06'0 0.0
2018-Feb-23 12:55N 43°22' W 003°06'0 0.0
2018-Feb-23 12:28N 43°22' W 003°06'1 3.0
2018-Feb-23 12:00N 43°23' W 003°05'3 4.7
2018-Feb-23 11:28N 43°23' W 003°09'0 0.0
2018-Feb-23 10:55N 43°23' W 003°09'0 0.0
2018-Feb-23 10:28N 43°23' W 003°09'0 0.0
2018-Feb-23 09:58N 43°23' W 003°09'0 0.0
2018-Feb-23 09:28N 43°23' W 003°09'0 0.0
2018-Feb-23 08:58N 43°23' W 003°09'0 0.0
2018-Feb-23 08:28N 43°23' W 003°09'0 0.0
2018-Feb-23 07:58N 43°23' W 003°09'0 0.0
2018-Feb-23 07:28N 43°23' W 003°09'0 0.0
2018-Feb-23 06:58N 43°23' W 003°09'0 0.0
2018-Feb-23 06:28N 43°23' W 003°09'0 0.0
2018-Feb-23 05:58N 43°23' W 003°09'0 0.0
2018-Feb-23 05:28N 43°23' W 003°09'0 0.0
2018-Feb-23 04:58N 43°23' W 003°09'0 0.0
2018-Feb-23 04:28N 43°23' W 003°09'0 0.0
2018-Feb-23 03:58N 43°23' W 003°09'0 0.0
2018-Feb-23 03:28N 43°23' W 003°09'0 0.0
2018-Feb-23 02:58N 43°23' W 003°09'0 0.0
2018-Feb-23 02:28N 43°23' W 003°09'0 0.0
2018-Feb-23 01:58N 43°23' W 003°09'0 0.0
2018-Feb-23 01:28N 43°23' W 003°09'0 0.0
2018-Feb-23 00:58N 43°23' W 003°09'0 0.0
2018-Feb-23 00:28N 43°23' W 003°09'0 0.0
2018-Feb-22 23:58N 43°23' W 003°09'0 0.0
2018-Feb-22 23:28N 43°23' W 003°09'0 0.0
2018-Feb-22 22:58N 43°23' W 003°09'0 0.0
2018-Feb-22 22:28N 43°23' W 003°09'0 0.0
2018-Feb-22 21:58N 43°23' W 003°09'0 0.0
2018-Feb-22 21:28N 43°23' W 003°09'0 0.0
2018-Feb-22 20:58N 43°23' W 003°09'0 0.0
2018-Feb-22 20:28N 43°23' W 003°09'0 0.0
2018-Feb-22 19:58N 43°23' W 003°09'0 0.0
2018-Feb-22 19:25N 43°23' W 003°09'0 0.0
2018-Feb-22 18:58N 43°23' W 003°09'0 0.0
2018-Feb-22 18:28N 43°23' W 003°09'0 0.0
2018-Feb-22 17:58N 43°23' W 003°09'0 0.0
2018-Feb-22 17:28N 43°23' W 003°09'0 0.0
2018-Feb-22 16:58N 43°23' W 003°09'0 0.0
2018-Feb-22 16:28N 43°23' W 003°09'0 0.0
2018-Feb-22 15:58N 43°23' W 003°09'0 0.0
2018-Feb-22 15:28N 43°23' W 003°09'0 0.0
2018-Feb-22 14:58N 43°23' W 003°09'0 0.0
2018-Feb-22 14:28N 43°23' W 003°09'0 0.0
2018-Feb-22 13:58N 43°23' W 003°09'0 0.0
2018-Feb-22 13:28N 43°23' W 003°09'0 0.0
2018-Feb-22 12:58N 43°23' W 003°09'0 0.0
2018-Feb-22 12:28N 43°23' W 003°09'0 0.0
2018-Feb-22 11:58N 43°23' W 003°09'0 0.0
2018-Feb-22 11:28N 43°23' W 003°09'0 0.0
2018-Feb-22 10:58N 43°23' W 003°09'0 0.0
2018-Feb-22 10:28N 43°23' W 003°09'0 0.0
2018-Feb-22 09:58N 43°23' W 003°09'0 0.1
2018-Feb-22 09:28N 43°23' W 003°09'2 4.1
2018-Feb-22 09:00N 43°24' W 003°10'712.9
2018-Feb-22 08:30N 43°31' W 003°12'612.8
2018-Feb-22 08:00N 43°37' W 003°14'3 0.6
2018-Feb-22 02:23N 43°37' W 003°09'410.5
2018-Feb-22 02:00N 43°34' W 003°06'4 8.2
2018-Feb-22 01:30N 43°30' W 003°07'2 1.4
2018-Feb-21 23:50N 43°32' W 003°07'0 1.3
2018-Feb-21 23:29N 43°32' W 003°07'1 1.3
2018-Feb-21 22:59N 43°33' W 003°07'1 1.3
2018-Feb-21 22:29N 43°34' W 003°08'1 1.3
2018-Feb-21 21:56N 43°34' W 003°08'1 1.1
2018-Feb-21 21:14N 43°35' W 003°08'0 1.0
2018-Feb-21 20:56N 43°35' W 003°09'1 1.1
2018-Feb-21 20:23N 43°36' W 003°09'1 1.1
2018-Feb-21 19:44N 43°36' W 003°09'2 0.4
2018-Feb-21 15:22N 43°38' W 003°09'510.3
2018-Feb-21 14:55N 43°34' W 003°10'4 9.0
2018-Feb-21 14:30N 43°30' W 003°12'1 1.3
2018-Feb-21 14:00N 43°31' W 003°12'1 1.3
2018-Feb-21 13:30N 43°31' W 003°12'1 1.4
2018-Feb-21 12:59N 43°32' W 003°12'1 1.4
2018-Feb-21 12:30N 43°33' W 003°12'1 1.3
2018-Feb-21 11:57N 43°33' W 003°12'1 1.1
2018-Feb-21 11:30N 43°34' W 003°12'1 1.1
2018-Feb-21 11:00N 43°34' W 003°13'1 1.1
2018-Feb-21 10:30N 43°35' W 003°13'1 1.2
2018-Feb-21 10:00N 43°35' W 003°13'1 1.3
2018-Feb-21 09:30N 43°36' W 003°13'1 1.2
2018-Feb-21 09:00N 43°37' W 003°13'1 1.3
2018-Feb-21 08:30N 43°37' W 003°13'1 1.3
2018-Feb-21 07:59N 43°38' W 003°13'1 2.9
2018-Feb-21 07:30N 43°37' W 003°12'610.2
2018-Feb-21 06:54N 43°31' W 003°08'2 3.8
2018-Feb-21 06:26N 43°30' W 003°07'1 1.4
2018-Feb-21 05:44N 43°31' W 003°07'1 1.4
2018-Feb-21 04:50N 43°32' W 003°08'1 1.5
2018-Feb-21 04:23N 43°33' W 003°08'1 1.6
2018-Feb-21 03:59N 43°33' W 003°09'1 1.6
2018-Feb-21 03:17N 43°34' W 003°09'1 1.7
2018-Feb-21 02:59N 43°35' W 003°09'4 7.4
2018-Feb-21 02:30N 43°31' W 003°10'1 1.9
2018-Feb-21 02:00N 43°30' W 003°10'1 1.9
2018-Feb-21 01:30N 43°31' W 003°10'2 1.7
2018-Feb-21 00:08N 43°33' W 003°10'2 7.5
2018-Feb-20 23:53N 43°32' W 003°09'3 7.3
2018-Feb-20 23:30N 43°29' W 003°08'2 3.1
2018-Feb-20 23:00N 43°31' W 003°09'713.0
2018-Feb-20 22:30N 43°37' W 003°13'612.7
2018-Feb-20 22:00N 43°43' W 003°16'24412.7
2018-Feb-20 02:43N 47°31' W 005°21'1913.0
2018-Feb-20 01:14N 47°49' W 005°31'413.4
2018-Feb-20 00:57N 47°52' W 005°33'713.7
2018-Feb-20 00:28N 47°58' W 005°38'714.0
2018-Feb-20 00:00N 48°04' W 005°41'1514.4
2018-Feb-19 22:56N 48°19' W 005°49'814.5
2018-Feb-19 22:22N 48°26' W 005°53'1912.8
2018-Feb-19 20:51N 48°46' W 005°54'11811.8
2018-Feb-19 10:53N 49°49' W 003°21'411.6
2018-Feb-19 10:30N 49°52' W 003°16'611.1
2018-Feb-19 09:59N 49°56' W 003°09'510.3
2018-Feb-19 09:30N 49°57' W 003°02'510.4
2018-Feb-19 09:00N 49°59' W 002°54'710.5
2018-Feb-19 08:19N 50°00' W 002°43'711.0
2018-Feb-19 07:42N 50°03' W 002°34'2212.7
2018-Feb-19 05:58N 50°09' W 002°00'715.1
2018-Feb-19 05:30N 50°11' W 001°50'815.8
2018-Feb-19 04:59N 50°14' W 001°38'816.2
2018-Feb-19 04:30N 50°15' W 001°26'4115.7
2018-Feb-19 01:55N 50°27' W 000°25'613.7
2018-Feb-19 01:30N 50°28' W 000°16'713.0
2018-Feb-19 01:00N 50°30' W 000°07'612.2
2018-Feb-19 00:30N 50°32' E 000°03'611.6
2018-Feb-19 00:00N 50°33' E 000°11'611.1
2018-Feb-18 23:30N 50°34' E 000°20'510.9
2018-Feb-18 23:00N 50°36' E 000°28'510.8
2018-Feb-18 22:30N 50°38' E 000°36'611.6
2018-Feb-18 22:00N 50°42' E 000°43'612.5
2018-Feb-18 21:30N 50°45' E 000°51'713.5
2018-Feb-18 21:00N 50°49' E 001°00'814.4
2018-Feb-18 20:26N 50°54' E 001°10'715.1
2018-Feb-18 20:00N 50°59' E 001°17'815.4
2018-Feb-18 19:30N 51°04' E 001°27'714.9
2018-Feb-18 19:00N 51°09' E 001°36'714.2
2018-Feb-18 18:30N 51°13' E 001°45'713.4
2018-Feb-18 18:00N 51°18' E 001°51'612.6
2018-Feb-18 17:30N 51°24' E 001°57'510.9
2018-Feb-18 17:00N 51°24' E 002°06'713.5
2018-Feb-18 16:30N 51°21' E 002°15'611.7
2018-Feb-18 16:00N 51°22' E 002°25'611.8
2018-Feb-18 15:27N 51°23' E 002°35'612.1
2018-Feb-18 14:59N 51°22' E 002°44'510.1
2018-Feb-18 14:30N 51°23' E 002°52'510.4
2018-Feb-18 14:01N 51°24' E 002°60'510.0
2018-Feb-18 13:31N 51°24' E 003°08'5 9.7
2018-Feb-18 13:01N 51°25' E 003°16'510.6
2018-Feb-18 12:31N 51°25' E 003°24'611.1
2018-Feb-18 11:59N 51°26' E 003°33'510.7
2018-Feb-18 11:30N 51°26' E 003°41'611.2
2018-Feb-18 11:00N 51°21' E 003°46'0 0.3
2018-Feb-18 10:28N 51°21' E 003°46'0 0.0
2018-Feb-18 09:58N 51°21' E 003°46'0 0.0
2018-Feb-18 09:28N 51°21' E 003°46'0 0.0
2018-Feb-18 08:52N 51°21' E 003°46'0 0.0
2018-Feb-18 08:28N 51°21' E 003°46'0 0.0
2018-Feb-18 07:58N 51°21' E 003°46'0 0.0
2018-Feb-18 07:22N 51°21' E 003°46'0 0.0
2018-Feb-18 06:58N 51°21' E 003°46'0 0.0
2018-Feb-18 06:22N 51°21' E 003°46'0 0.0
2018-Feb-18 05:58N 51°21' E 003°46'0 0.0
2018-Feb-18 05:28N 51°21' E 003°46'0 0.0
2018-Feb-18 04:58N 51°21' E 003°46'0 0.0
2018-Feb-18 04:25N 51°21' E 003°46'0 0.0
2018-Feb-18 03:58N 51°21' E 003°46'0 0.0
2018-Feb-18 03:28N 51°21' E 003°46'0 0.0
2018-Feb-18 02:58N 51°21' E 003°46'0 0.0
2018-Feb-18 02:28N 51°21' E 003°46'0 0.0
2018-Feb-18 01:58N 51°21' E 003°46'0 0.0
2018-Feb-18 01:25N 51°21' E 003°46'0 0.0
2018-Feb-18 00:58N 51°21' E 003°46'0 0.0
2018-Feb-18 00:28N 51°21' E 003°46'0 0.0
2018-Feb-17 23:55N 51°21' E 003°46'0 0.0
2018-Feb-17 23:28N 51°21' E 003°46'0 0.0
2018-Feb-17 22:58N 51°21' E 003°46'0 0.0
2018-Feb-17 22:22N 51°21' E 003°46'0 0.0
2018-Feb-17 21:58N 51°21' E 003°46'0 0.0
2018-Feb-17 21:28N 51°21' E 003°46'0 0.0
2018-Feb-17 20:58N 51°21' E 003°46'0 0.0
2018-Feb-17 20:28N 51°21' E 003°46'0 0.0
2018-Feb-17 19:58N 51°21' E 003°46'0 0.0
2018-Feb-17 19:28N 51°21' E 003°46'0 0.0
2018-Feb-17 18:58N 51°21' E 003°46'0 0.0
2018-Feb-17 18:25N 51°21' E 003°46'0 0.0
2018-Feb-17 17:58N 51°21' E 003°46'0 0.0
2018-Feb-17 17:28N 51°21' E 003°46'0 0.0
2018-Feb-17 16:55N 51°21' E 003°46'0 0.0
2018-Feb-17 16:28N 51°21' E 003°46'0 0.0
2018-Feb-17 15:58N 51°21' E 003°46'0 0.0
2018-Feb-17 15:28N 51°21' E 003°46'0 0.0
2018-Feb-17 14:58N 51°21' E 003°46'0 0.0
2018-Feb-17 14:25N 51°21' E 003°46'0 0.0
2018-Feb-17 13:58N 51°21' E 003°46'0 0.0
2018-Feb-17 13:28N 51°21' E 003°46'0 0.0
2018-Feb-17 12:58N 51°21' E 003°46'0 0.0
2018-Feb-17 12:28N 51°21' E 003°46'0 0.0
2018-Feb-17 11:55N 51°21' E 003°46'0 0.0
2018-Feb-17 11:28N 51°21' E 003°46'0 0.0
2018-Feb-17 10:49N 51°21' E 003°46'0 0.0
2018-Feb-17 10:28N 51°21' E 003°46'0 0.0
2018-Feb-17 09:58N 51°21' E 003°46'2 3.8
2018-Feb-17 09:30N 51°22' E 003°44'5 9.9
2018-Feb-17 09:00N 51°25' E 003°38'3 6.6
2018-Feb-17 08:30N 51°25' E 003°32'4 7.3
2018-Feb-17 08:00N 51°25' E 003°27'4 8.5
2018-Feb-17 07:30N 51°24' E 003°20'4 7.5
2018-Feb-17 07:00N 51°24' E 003°14'4 8.4
2018-Feb-17 06:30N 51°24' E 003°07'5 9.6
2018-Feb-17 06:00N 51°23' E 002°60'611.5
2018-Feb-17 05:30N 51°22' E 002°51'510.0
2018-Feb-17 04:58N 51°22' E 002°42'2 4.9
2018-Feb-17 04:29N 51°24' E 002°40'2 4.0
2018-Feb-17 03:59N 51°25' E 002°37'0 0.0
2018-Feb-17 03:29N 51°25' E 002°37'0 0.0
2018-Feb-17 02:59N 51°25' E 002°37'0 0.0
2018-Feb-17 02:29N 51°25' E 002°37'0 0.0
2018-Feb-17 01:59N 51°25' E 002°37'0 0.0
2018-Feb-17 01:29N 51°25' E 002°37'0 0.1
2018-Feb-17 00:59N 51°25' E 002°37'0 0.0
2018-Feb-17 00:29N 51°25' E 002°37'0 0.2
2018-Feb-16 23:59N 51°25' E 002°37'0 0.3
2018-Feb-16 23:29N 51°25' E 002°37'0 0.0
2018-Feb-16 22:56N 51°25' E 002°37'0 0.0
2018-Feb-16 22:29N 51°25' E 002°37'0 0.0
2018-Feb-16 21:59N 51°25' E 002°37'0 0.0
2018-Feb-16 21:29N 51°25' E 002°37'0 0.0
2018-Feb-16 20:56N 51°25' E 002°37'0 0.0
2018-Feb-16 20:26N 51°25' E 002°37'0 0.1
2018-Feb-16 19:59N 51°25' E 002°37'0 0.0
2018-Feb-16 19:29N 51°25' E 002°37'0 0.1
2018-Feb-16 18:56N 51°25' E 002°37'0 0.0
2018-Feb-16 18:29N 51°25' E 002°37'0 0.0
2018-Feb-16 17:59N 51°25' E 002°37'0 0.1
2018-Feb-16 17:20N 51°25' E 002°37'0 0.1
2018-Feb-16 16:59N 51°25' E 002°37'0 0.0
2018-Feb-16 16:20N 51°25' E 002°37'0 0.0
2018-Feb-16 15:59N 51°25' E 002°37'0 0.0
2018-Feb-16 15:26N 51°25' E 002°37'0 0.0
2018-Feb-16 14:59N 51°25' E 002°37'0 0.0
2018-Feb-16 14:29N 51°25' E 002°37'0 0.0
2018-Feb-16 13:59N 51°25' E 002°37'0 0.0
2018-Feb-16 13:29N 51°25' E 002°37'0 0.0
2018-Feb-16 12:59N 51°25' E 002°37'0 0.0
2018-Feb-16 12:29N 51°25' E 002°37'0 0.1
2018-Feb-16 11:59N 51°25' E 002°37'0 0.1
2018-Feb-16 11:29N 51°25' E 002°37'0 0.2
2018-Feb-16 10:59N 51°25' E 002°37'0 0.1
2018-Feb-16 10:29N 51°25' E 002°37'0 0.0
2018-Feb-16 09:59N 51°25' E 002°37'0 0.0
2018-Feb-16 09:29N 51°25' E 002°37'0 0.0
2018-Feb-16 08:56N 51°25' E 002°37'0 0.0
2018-Feb-16 08:29N 51°25' E 002°37'0 0.0
2018-Feb-16 07:56N 51°25' E 002°37'0 0.1
2018-Feb-16 07:29N 51°25' E 002°37'0 0.1
2018-Feb-16 06:56N 51°25' E 002°37'0 0.2
2018-Feb-16 06:29N 51°25' E 002°37'0 0.1
2018-Feb-16 05:56N 51°25' E 002°37'0 0.0
2018-Feb-16 05:29N 51°25' E 002°37'0 0.1
2018-Feb-16 04:53N 51°25' E 002°37'0 0.0
2018-Feb-16 04:29N 51°25' E 002°37'0 0.1
2018-Feb-16 03:59N 51°25' E 002°37'0 0.0
2018-Feb-16 03:29N 51°25' E 002°37'0 0.0
2018-Feb-16 02:59N 51°25' E 002°37'0 0.0
2018-Feb-16 02:26N 51°25' E 002°37'0 0.0
2018-Feb-16 01:59N 51°25' E 002°37'0 0.0
2018-Feb-16 01:29N 51°25' E 002°37'0 0.0
2018-Feb-16 00:59N 51°25' E 002°37'0 0.0
2018-Feb-16 00:29N 51°25' E 002°37'0 0.0
2018-Feb-15 23:59N 51°25' E 002°37'0 0.1
2018-Feb-15 23:29N 51°25' E 002°37'0 0.1
2018-Feb-15 22:59N 51°25' E 002°37'0 0.2
2018-Feb-15 22:26N 51°25' E 002°37'0 0.2
2018-Feb-15 21:59N 51°25' E 002°37'  
Track history (hours):
 
Tides and Currents Weather Stations Pressure Air Temp Water Temp Dewpoint Dewpoint Depression Visibility Wind Speed Wind Dir Waves Ship Positions

Linda Kosan

Last reported at 2018-Feb-25 21:31 UTC. Time now 2018-Feb-25 21:56 UTC.
Position N 48°51' W 005°29'.

Length 100 m; draft 5.5 m.

Type: Tanker. MMSI: 219048000.

Date/timePositionNaut miles runAvg speedWind from/ knotsBaromVisibWave heightAir tempDewpointWater temp
2018-Feb-25 21:31N 48°51' W 005°29'4 8.4
2018-Feb-25 20:59N 48°49' W 005°35'10 8.7
2018-Feb-25 19:51N 48°41' W 005°43'4 9.0
2018-Feb-25 19:27N 48°37' W 005°45'32 9.9
2018-Feb-25 16:15N 48°06' W 005°41'2 7.1
2018-Feb-25 15:54N 48°04' W 005°39'4 8.7
2018-Feb-25 15:29N 48°00' W 005°38'811.4
2018-Feb-25 14:46N 47°53' W 005°33'27212.6
2018-Feb-24 17:08N 43°39' W 003°13'213.2
2018-Feb-24 17:00N 43°37' W 003°13'612.9
2018-Feb-24 16:30N 43°31' W 003°09'612.9
2018-Feb-24 16:00N 43°25' W 003°06'3 0.7
2018-Feb-24 11:40N 43°22' W 003°06'0 0.0
2018-Feb-24 11:28N 43°22' W 003°06'0 0.0
2018-Feb-24 10:58N 43°22' W 003°06'0 0.0
2018-Feb-24 10:28N 43°22' W 003°06'0 0.0
2018-Feb-24 09:58N 43°22' W 003°06'0 0.0
2018-Feb-24 09:25N 43°22' W 003°06'0 0.0
2018-Feb-24 08:58N 43°22' W 003°06'0 0.0
2018-Feb-24 08:28N 43°22' W 003°06'0 0.0
2018-Feb-24 07:58N 43°22' W 003°06'0 0.0
2018-Feb-24 07:28N 43°22' W 003°06'0 0.0
2018-Feb-24 06:58N 43°22' W 003°06'0 0.0
2018-Feb-24 06:28N 43°22' W 003°06'0 0.0
2018-Feb-24 05:58N 43°22' W 003°06'0 0.0
2018-Feb-24 05:28N 43°22' W 003°06'0 0.0
2018-Feb-24 04:58N 43°22' W 003°06'0 0.0
2018-Feb-24 04:28N 43°22' W 003°06'0 0.0
2018-Feb-24 03:58N 43°22' W 003°06'0 0.0
2018-Feb-24 03:25N 43°22' W 003°06'0 0.0
2018-Feb-24 02:55N 43°22' W 003°06'0 0.0
2018-Feb-24 02:25N 43°22' W 003°06'0 0.0
2018-Feb-24 01:55N 43°22' W 003°06'0 0.0
2018-Feb-24 01:28N 43°22' W 003°06'0 0.0
2018-Feb-24 00:58N 43°22' W 003°06'0 0.0
2018-Feb-24 00:28N 43°22' W 003°06'0 0.0
2018-Feb-23 23:58N 43°22' W 003°06'0 0.0
2018-Feb-23 23:28N 43°22' W 003°06'0 0.0
2018-Feb-23 22:58N 43°22' W 003°06'0 0.0
2018-Feb-23 22:28N 43°22' W 003°06'0 0.0
2018-Feb-23 21:58N 43°22' W 003°06'0 0.0
2018-Feb-23 21:28N 43°22' W 003°06'0 0.0
2018-Feb-23 20:58N 43°22' W 003°06'0 0.0
2018-Feb-23 20:28N 43°22' W 003°06'0 0.0
2018-Feb-23 19:58N 43°22' W 003°06'0 0.1
2018-Feb-23 19:28N 43°22' W 003°06'0 0.1
2018-Feb-23 18:58N 43°22' W 003°06'0 0.0
2018-Feb-23 18:28N 43°22' W 003°06'0 0.0
2018-Feb-23 17:58N 43°22' W 003°06'0 0.0
2018-Feb-23 17:28N 43°22' W 003°06'0 0.0
2018-Feb-23 16:58N 43°22' W 003°06'0 0.0
2018-Feb-23 16:28N 43°22' W 003°06'0 0.0
2018-Feb-23 15:58N 43°22' W 003°06'0 0.0
2018-Feb-23 15:28N 43°22' W 003°06'0 0.0
2018-Feb-23 14:58N 43°22' W 003°06'0 0.0
2018-Feb-23 14:28N 43°22' W 003°06'0 0.0
2018-Feb-23 13:58N 43°22' W 003°06'0 0.0
2018-Feb-23 13:28N 43°22' W 003°06'0 0.0
2018-Feb-23 12:55N 43°22' W 003°06'0 0.0
2018-Feb-23 12:28N 43°22' W 003°06'1 3.0
2018-Feb-23 12:00N 43°23' W 003°05'3 4.7
2018-Feb-23 11:28N 43°23' W 003°09'0 0.0
2018-Feb-23 10:55N 43°23' W 003°09'0 0.0
2018-Feb-23 10:28N 43°23' W 003°09'0 0.0
2018-Feb-23 09:58N 43°23' W 003°09'0 0.0
2018-Feb-23 09:28N 43°23' W 003°09'0 0.0
2018-Feb-23 08:58N 43°23' W 003°09'0 0.0
2018-Feb-23 08:28N 43°23' W 003°09'0 0.0
2018-Feb-23 07:58N 43°23' W 003°09'0 0.0
2018-Feb-23 07:28N 43°23' W 003°09'0 0.0
2018-Feb-23 06:58N 43°23' W 003°09'0 0.0
2018-Feb-23 06:28N 43°23' W 003°09'0 0.0
2018-Feb-23 05:58N 43°23' W 003°09'0 0.0
2018-Feb-23 05:28N 43°23' W 003°09'0 0.0
2018-Feb-23 04:58N 43°23' W 003°09'0 0.0
2018-Feb-23 04:28N 43°23' W 003°09'0 0.0
2018-Feb-23 03:58N 43°23' W 003°09'0 0.0
2018-Feb-23 03:28N 43°23' W 003°09'0 0.0
2018-Feb-23 02:58N 43°23' W 003°09'0 0.0
2018-Feb-23 02:28N 43°23' W 003°09'0 0.0
2018-Feb-23 01:58N 43°23' W 003°09'0 0.0
2018-Feb-23 01:28N 43°23' W 003°09'0 0.0
2018-Feb-23 00:58N 43°23' W 003°09'0 0.0
2018-Feb-23 00:28N 43°23' W 003°09'0 0.0
2018-Feb-22 23:58N 43°23' W 003°09'0 0.0
2018-Feb-22 23:28N 43°23' W 003°09'0 0.0
2018-Feb-22 22:58N 43°23' W 003°09'0 0.0
2018-Feb-22 22:28N 43°23' W 003°09'0 0.0
2018-Feb-22 21:58N 43°23' W 003°09'0 0.0
2018-Feb-22 21:28N 43°23' W 003°09'0 0.0
2018-Feb-22 20:58N 43°23' W 003°09'0 0.0
2018-Feb-22 20:28N 43°23' W 003°09'0 0.0
2018-Feb-22 19:58N 43°23' W 003°09'0 0.0
2018-Feb-22 19:25N 43°23' W 003°09'0 0.0
2018-Feb-22 18:58N 43°23' W 003°09'0 0.0
2018-Feb-22 18:28N 43°23' W 003°09'0 0.0
2018-Feb-22 17:58N 43°23' W 003°09'0 0.0
2018-Feb-22 17:28N 43°23' W 003°09'0 0.0
2018-Feb-22 16:58N 43°23' W 003°09'0 0.0
2018-Feb-22 16:28N 43°23' W 003°09'0 0.0
2018-Feb-22 15:58N 43°23' W 003°09'0 0.0
2018-Feb-22 15:28N 43°23' W 003°09'0 0.0
2018-Feb-22 14:58N 43°23' W 003°09'0 0.0
2018-Feb-22 14:28N 43°23' W 003°09'0 0.0
2018-Feb-22 13:58N 43°23' W 003°09'0 0.0
2018-Feb-22 13:28N 43°23' W 003°09'0 0.0
2018-Feb-22 12:58N 43°23' W 003°09'0 0.0
2018-Feb-22 12:28N 43°23' W 003°09'0 0.0
2018-Feb-22 11:58N 43°23' W 003°09'0 0.0
2018-Feb-22 11:28N 43°23' W 003°09'0 0.0
2018-Feb-22 10:58N 43°23' W 003°09'0 0.0
2018-Feb-22 10:28N 43°23' W 003°09'0 0.0
2018-Feb-22 09:58N 43°23' W 003°09'0 0.1
2018-Feb-22 09:28N 43°23' W 003°09'2 4.1
2018-Feb-22 09:00N 43°24' W 003°10'712.9
2018-Feb-22 08:30N 43°31' W 003°12'612.8
2018-Feb-22 08:00N 43°37' W 003°14'3 0.6
2018-Feb-22 02:23N 43°37' W 003°09'410.5
2018-Feb-22 02:00N 43°34' W 003°06'4 8.2
2018-Feb-22 01:30N 43°30' W 003°07'2 1.4
2018-Feb-21 23:50N 43°32' W 003°07'0 1.3
2018-Feb-21 23:29N 43°32' W 003°07'1 1.3
2018-Feb-21 22:59N 43°33' W 003°07'1 1.3
2018-Feb-21 22:29N 43°34' W 003°08'1 1.3
2018-Feb-21 21:56N 43°34' W 003°08'1 1.1
2018-Feb-21 21:14N 43°35' W 003°08'0 1.0
2018-Feb-21 20:56N 43°35' W 003°09'1 1.1
2018-Feb-21 20:23N 43°36' W 003°09'1 1.1
2018-Feb-21 19:44N 43°36' W 003°09'2 0.4
2018-Feb-21 15:22N 43°38' W 003°09'510.3
2018-Feb-21 14:55N 43°34' W 003°10'4 9.0
2018-Feb-21 14:30N 43°30' W 003°12'1 1.3
2018-Feb-21 14:00N 43°31' W 003°12'1 1.3
2018-Feb-21 13:30N 43°31' W 003°12'1 1.4
2018-Feb-21 12:59N 43°32' W 003°12'1 1.4
2018-Feb-21 12:30N 43°33' W 003°12'1 1.3
2018-Feb-21 11:57N 43°33' W 003°12'1 1.1
2018-Feb-21 11:30N 43°34' W 003°12'1 1.1
2018-Feb-21 11:00N 43°34' W 003°13'1 1.1
2018-Feb-21 10:30N 43°35' W 003°13'1 1.2
2018-Feb-21 10:00N 43°35' W 003°13'1 1.3
2018-Feb-21 09:30N 43°36' W 003°13'1 1.2
2018-Feb-21 09:00N 43°37' W 003°13'1 1.3
2018-Feb-21 08:30N 43°37' W 003°13'1 1.3
2018-Feb-21 07:59N 43°38' W 003°13'1 2.9
2018-Feb-21 07:30N 43°37' W 003°12'610.2
2018-Feb-21 06:54N 43°31' W 003°08'2 3.8
2018-Feb-21 06:26N 43°30' W 003°07'1 1.4
2018-Feb-21 05:44N 43°31' W 003°07'1 1.4
2018-Feb-21 04:50N 43°32' W 003°08'1 1.5
2018-Feb-21 04:23N 43°33' W 003°08'1 1.6
2018-Feb-21 03:59N 43°33' W 003°09'1 1.6
2018-Feb-21 03:17N 43°34' W 003°09'1 1.7
2018-Feb-21 02:59N 43°35' W 003°09'4 7.4
2018-Feb-21 02:30N 43°31' W 003°10'1 1.9
2018-Feb-21 02:00N 43°30' W 003°10'1 1.9
2018-Feb-21 01:30N 43°31' W 003°10'2 1.7
2018-Feb-21 00:08N 43°33' W 003°10'2 7.5
2018-Feb-20 23:53N 43°32' W 003°09'3 7.3
2018-Feb-20 23:30N 43°29' W 003°08'2 3.1
2018-Feb-20 23:00N 43°31' W 003°09'713.0
2018-Feb-20 22:30N 43°37' W 003°13'612.7
2018-Feb-20 22:00N 43°43' W 003°16'24412.7
2018-Feb-20 02:43N 47°31' W 005°21'1913.0
2018-Feb-20 01:14N 47°49' W 005°31'413.4
2018-Feb-20 00:57N 47°52' W 005°33'713.7
2018-Feb-20 00:28N 47°58' W 005°38'714.0
2018-Feb-20 00:00N 48°04' W 005°41'1514.4
2018-Feb-19 22:56N 48°19' W 005°49'814.5
2018-Feb-19 22:22N 48°26' W 005°53'1912.8
2018-Feb-19 20:51N 48°46' W 005°54'11811.8
2018-Feb-19 10:53N 49°49' W 003°21'411.6
2018-Feb-19 10:30N 49°52' W 003°16'611.1
2018-Feb-19 09:59N 49°56' W 003°09'510.3
2018-Feb-19 09:30N 49°57' W 003°02'510.4
2018-Feb-19 09:00N 49°59' W 002°54'710.5
2018-Feb-19 08:19N 50°00' W 002°43'711.0
2018-Feb-19 07:42N 50°03' W 002°34'2212.7
2018-Feb-19 05:58N 50°09' W 002°00'715.1
2018-Feb-19 05:30N 50°11' W 001°50'815.8
2018-Feb-19 04:59N 50°14' W 001°38'816.2
2018-Feb-19 04:30N 50°15' W 001°26'4115.7
2018-Feb-19 01:55N 50°27' W 000°25'613.7
2018-Feb-19 01:30N 50°28' W 000°16'713.0
2018-Feb-19 01:00N 50°30' W 000°07'612.2
2018-Feb-19 00:30N 50°32' E 000°03'611.6
2018-Feb-19 00:00N 50°33' E 000°11'611.1
2018-Feb-18 23:30N 50°34' E 000°20'510.9
2018-Feb-18 23:00N 50°36' E 000°28'510.8
2018-Feb-18 22:30N 50°38' E 000°36'611.6
2018-Feb-18 22:00N 50°42' E 000°43'612.5
2018-Feb-18 21:30N 50°45' E 000°51'713.5
2018-Feb-18 21:00N 50°49' E 001°00'814.4
2018-Feb-18 20:26N 50°54' E 001°10'715.1
2018-Feb-18 20:00N 50°59' E 001°17'815.4
2018-Feb-18 19:30N 51°04' E 001°27'714.9
2018-Feb-18 19:00N 51°09' E 001°36'714.2
2018-Feb-18 18:30N 51°13' E 001°45'713.4
2018-Feb-18 18:00N 51°18' E 001°51'612.6
2018-Feb-18 17:30N 51°24' E 001°57'510.9
2018-Feb-18 17:00N 51°24' E 002°06'713.5
2018-Feb-18 16:30N 51°21' E 002°15'611.7
2018-Feb-18 16:00N 51°22' E 002°25'611.8
2018-Feb-18 15:27N 51°23' E 002°35'612.1
2018-Feb-18 14:59N 51°22' E 002°44'510.1
2018-Feb-18 14:30N 51°23' E 002°52'510.4
2018-Feb-18 14:01N 51°24' E 002°60'510.0
2018-Feb-18 13:31N 51°24' E 003°08'5 9.7
2018-Feb-18 13:01N 51°25' E 003°16'510.6
2018-Feb-18 12:31N 51°25' E 003°24'611.1
2018-Feb-18 11:59N 51°26' E 003°33'510.7
2018-Feb-18 11:30N 51°26' E 003°41'611.2
2018-Feb-18 11:00N 51°21' E 003°46'0 0.3
2018-Feb-18 10:28N 51°21' E 003°46'0 0.0
2018-Feb-18 09:58N 51°21' E 003°46'0 0.0
2018-Feb-18 09:28N 51°21' E 003°46'0 0.0
2018-Feb-18 08:52N 51°21' E 003°46'0 0.0
2018-Feb-18 08:28N 51°21' E 003°46'0 0.0
2018-Feb-18 07:58N 51°21' E 003°46'0 0.0
2018-Feb-18 07:22N 51°21' E 003°46'0 0.0
2018-Feb-18 06:58N 51°21' E 003°46'0 0.0
2018-Feb-18 06:22N 51°21' E 003°46'0 0.0
2018-Feb-18 05:58N 51°21' E 003°46'0 0.0
2018-Feb-18 05:28N 51°21' E 003°46'0 0.0
2018-Feb-18 04:58N 51°21' E 003°46'0 0.0
2018-Feb-18 04:25N 51°21' E 003°46'0 0.0
2018-Feb-18 03:58N 51°21' E 003°46'0 0.0
2018-Feb-18 03:28N 51°21' E 003°46'0 0.0
2018-Feb-18 02:58N 51°21' E 003°46'0 0.0
2018-Feb-18 02:28N 51°21' E 003°46'0 0.0
2018-Feb-18 01:58N 51°21' E 003°46'0 0.0
2018-Feb-18 01:25N 51°21' E 003°46'0 0.0
2018-Feb-18 00:58N 51°21' E 003°46'0 0.0
2018-Feb-18 00:28N 51°21' E 003°46'0 0.0
2018-Feb-17 23:55N 51°21' E 003°46'0 0.0
2018-Feb-17 23:28N 51°21' E 003°46'0 0.0
2018-Feb-17 22:58N 51°21' E 003°46'0 0.0
2018-Feb-17 22:22N 51°21' E 003°46'0 0.0
2018-Feb-17 21:58N 51°21' E 003°46'0 0.0
2018-Feb-17 21:28N 51°21' E 003°46'0 0.0
2018-Feb-17 20:58N 51°21' E 003°46'0 0.0
2018-Feb-17 20:28N 51°21' E 003°46'0 0.0
2018-Feb-17 19:58N 51°21' E 003°46'0 0.0
2018-Feb-17 19:28N 51°21' E 003°46'0 0.0
2018-Feb-17 18:58N 51°21' E 003°46'0 0.0
2018-Feb-17 18:25N 51°21' E 003°46'0 0.0
2018-Feb-17 17:58N 51°21' E 003°46'0 0.0
2018-Feb-17 17:28N 51°21' E 003°46'0 0.0
2018-Feb-17 16:55N 51°21' E 003°46'0 0.0
2018-Feb-17 16:28N 51°21' E 003°46'0 0.0
2018-Feb-17 15:58N 51°21' E 003°46'0 0.0
2018-Feb-17 15:28N 51°21' E 003°46'0 0.0
2018-Feb-17 14:58N 51°21' E 003°46'0 0.0
2018-Feb-17 14:25N 51°21' E 003°46'0 0.0
2018-Feb-17 13:58N 51°21' E 003°46'0 0.0
2018-Feb-17 13:28N 51°21' E 003°46'0 0.0
2018-Feb-17 12:58N 51°21' E 003°46'0 0.0
2018-Feb-17 12:28N 51°21' E 003°46'0 0.0
2018-Feb-17 11:55N 51°21' E 003°46'0 0.0
2018-Feb-17 11:28N 51°21' E 003°46'0 0.0
2018-Feb-17 10:49N 51°21' E 003°46'0 0.0
2018-Feb-17 10:28N 51°21' E 003°46'0 0.0
2018-Feb-17 09:58N 51°21' E 003°46'2 3.8
2018-Feb-17 09:30N 51°22' E 003°44'5 9.9
2018-Feb-17 09:00N 51°25' E 003°38'3 6.6
2018-Feb-17 08:30N 51°25' E 003°32'4 7.3
2018-Feb-17 08:00N 51°25' E 003°27'4 8.5
2018-Feb-17 07:30N 51°24' E 003°20'4 7.5
2018-Feb-17 07:00N 51°24' E 003°14'4 8.4
2018-Feb-17 06:30N 51°24' E 003°07'5 9.6
2018-Feb-17 06:00N 51°23' E 002°60'611.5
2018-Feb-17 05:30N 51°22' E 002°51'510.0
2018-Feb-17 04:58N 51°22' E 002°42'2 4.9
2018-Feb-17 04:29N 51°24' E 002°40'2 4.0
2018-Feb-17 03:59N 51°25' E 002°37'0 0.0
2018-Feb-17 03:29N 51°25' E 002°37'0 0.0
2018-Feb-17 02:59N 51°25' E 002°37'0 0.0
2018-Feb-17 02:29N 51°25' E 002°37'0 0.0
2018-Feb-17 01:59N 51°25' E 002°37'0 0.0
2018-Feb-17 01:29N 51°25' E 002°37'0 0.1
2018-Feb-17 00:59N 51°25' E 002°37'0 0.0
2018-Feb-17 00:29N 51°25' E 002°37'0 0.2
2018-Feb-16 23:59N 51°25' E 002°37'0 0.3
2018-Feb-16 23:29N 51°25' E 002°37'0 0.0
2018-Feb-16 22:56N 51°25' E 002°37'0 0.0
2018-Feb-16 22:29N 51°25' E 002°37'0 0.0
2018-Feb-16 21:59N 51°25' E 002°37'0 0.0
2018-Feb-16 21:29N 51°25' E 002°37'0 0.0
2018-Feb-16 20:56N 51°25' E 002°37'0 0.0
2018-Feb-16 20:26N 51°25' E 002°37'0 0.1
2018-Feb-16 19:59N 51°25' E 002°37'0 0.0
2018-Feb-16 19:29N 51°25' E 002°37'0 0.1
2018-Feb-16 18:56N 51°25' E 002°37'0 0.0
2018-Feb-16 18:29N 51°25' E 002°37'0 0.0
2018-Feb-16 17:59N 51°25' E 002°37'0 0.1
2018-Feb-16 17:20N 51°25' E 002°37'0 0.1
2018-Feb-16 16:59N 51°25' E 002°37'0 0.0
2018-Feb-16 16:20N 51°25' E 002°37'0 0.0
2018-Feb-16 15:59N 51°25' E 002°37'0 0.0
2018-Feb-16 15:26N 51°25' E 002°37'0 0.0
2018-Feb-16 14:59N 51°25' E 002°37'0 0.0
2018-Feb-16 14:29N 51°25' E 002°37'0 0.0
2018-Feb-16 13:59N 51°25' E 002°37'0 0.0
2018-Feb-16 13:29N 51°25' E 002°37'0 0.0
2018-Feb-16 12:59N 51°25' E 002°37'0 0.0
2018-Feb-16 12:29N 51°25' E 002°37'0 0.1
2018-Feb-16 11:59N 51°25' E 002°37'0 0.1
2018-Feb-16 11:29N 51°25' E 002°37'0 0.2
2018-Feb-16 10:59N 51°25' E 002°37'0 0.1
2018-Feb-16 10:29N 51°25' E 002°37'0 0.0
2018-Feb-16 09:59N 51°25' E 002°37'0 0.0
2018-Feb-16 09:29N 51°25' E 002°37'0 0.0
2018-Feb-16 08:56N 51°25' E 002°37'0 0.0
2018-Feb-16 08:29N 51°25' E 002°37'0 0.0
2018-Feb-16 07:56N 51°25' E 002°37'0 0.1
2018-Feb-16 07:29N 51°25' E 002°37'0 0.1
2018-Feb-16 06:56N 51°25' E 002°37'0 0.2
2018-Feb-16 06:29N 51°25' E 002°37'0 0.1
2018-Feb-16 05:56N 51°25' E 002°37'0 0.0
2018-Feb-16 05:29N 51°25' E 002°37'0 0.1
2018-Feb-16 04:53N 51°25' E 002°37'0 0.0
2018-Feb-16 04:29N 51°25' E 002°37'0 0.1
2018-Feb-16 03:59N 51°25' E 002°37'0 0.0
2018-Feb-16 03:29N 51°25' E 002°37'0 0.0
2018-Feb-16 02:59N 51°25' E 002°37'0 0.0
2018-Feb-16 02:26N 51°25' E 002°37'0 0.0
2018-Feb-16 01:59N 51°25' E 002°37'0 0.0
2018-Feb-16 01:29N 51°25' E 002°37'0 0.0
2018-Feb-16 00:59N 51°25' E 002°37'0 0.0
2018-Feb-16 00:29N 51°25' E 002°37'0 0.0
2018-Feb-15 23:59N 51°25' E 002°37'0 0.1
2018-Feb-15 23:29N 51°25' E 002°37'0 0.1
2018-Feb-15 22:59N 51°25' E 002°37'0 0.2
2018-Feb-15 22:26N 51°25' E 002°37'0 0.2
2018-Feb-15 21:59N 51°25' E 002°37'  

Dump ship's entire track history